sensor_id;sensor_type;location;lat;lon;timestamp;temperature;humidity
10213;DHT22;5150;51.400;6.692;2022-08-07T00:03:19;25.60;1.00
10213;DHT22;5150;51.400;6.692;2022-08-07T00:06:47;25.60;1.00
10213;DHT22;5150;51.400;6.692;2022-08-07T00:10:13;25.60;1.00
10213;DHT22;5150;51.400;6.692;2022-08-07T00:13:48;25.60;1.00
10213;DHT22;5150;51.400;6.692;2022-08-07T00:17:11;25.50;1.00
10213;DHT22;5150;51.400;6.692;2022-08-07T00:20:37;25.50;1.00
10213;DHT22;5150;51.400;6.692;2022-08-07T00:24:02;25.40;1.00
10213;DHT22;5150;51.400;6.692;2022-08-07T00:27:27;25.40;1.00
10213;DHT22;5150;51.400;6.692;2022-08-07T00:31:14;25.40;1.00
10213;DHT22;5150;51.400;6.692;2022-08-07T00:34:38;25.30;1.00
10213;DHT22;5150;51.400;6.692;2022-08-07T00:38:02;25.30;1.00
10213;DHT22;5150;51.400;6.692;2022-08-07T00:41:30;25.30;1.00
10213;DHT22;5150;51.400;6.692;2022-08-07T00:44:58;25.20;1.00
10213;DHT22;5150;51.400;6.692;2022-08-07T00:48:28;25.20;1.00
10213;DHT22;5150;51.400;6.692;2022-08-07T00:51:53;25.20;1.00
10213;DHT22;5150;51.400;6.692;2022-08-07T00:55:19;25.10;1.00
10213;DHT22;5150;51.400;6.692;2022-08-07T00:59:04;25.10;1.00
10213;DHT22;5150;51.400;6.692;2022-08-07T01:02:27;25.10;1.00
10213;DHT22;5150;51.400;6.692;2022-08-07T01:05:54;25.00;1.00
10213;DHT22;5150;51.400;6.692;2022-08-07T01:09:17;25.00;1.00
10213;DHT22;5150;51.400;6.692;2022-08-07T01:13:00;25.00;1.00
10213;DHT22;5150;51.400;6.692;2022-08-07T01:16:27;24.90;1.00
10213;DHT22;5150;51.400;6.692;2022-08-07T01:19:55;24.90;1.00
10213;DHT22;5150;51.400;6.692;2022-08-07T01:23:24;24.90;1.00
10213;DHT22;5150;51.400;6.692;2022-08-07T01:27:01;24.80;1.00
10213;DHT22;5150;51.400;6.692;2022-08-07T01:30:25;24.80;1.00
10213;DHT22;5150;51.400;6.692;2022-08-07T01:33:51;24.80;1.00
10213;DHT22;5150;51.400;6.692;2022-08-07T01:37:22;24.80;1.00
10213;DHT22;5150;51.400;6.692;2022-08-07T01:40:50;24.70;1.00
10213;DHT22;5150;51.400;6.692;2022-08-07T01:44:16;24.70;1.00
10213;DHT22;5150;51.400;6.692;2022-08-07T01:47:40;24.70;1.00
10213;DHT22;5150;51.400;6.692;2022-08-07T01:51:24;24.60;1.00
10213;DHT22;5150;51.400;6.692;2022-08-07T01:55:08;24.60;1.00
10213;DHT22;5150;51.400;6.692;2022-08-07T01:58:51;24.60;1.00
10213;DHT22;5150;51.400;6.692;2022-08-07T02:02:18;24.50;1.00
10213;DHT22;5150;51.400;6.692;2022-08-07T02:06:06;24.50;1.00
10213;DHT22;5150;51.400;6.692;2022-08-07T02:09:54;24.50;1.00
10213;DHT22;5150;51.400;6.692;2022-08-07T02:13:22;24.50;1.00
10213;DHT22;5150;51.400;6.692;2022-08-07T02:17:07;24.40;1.00
10213;DHT22;5150;51.400;6.692;2022-08-07T02:20:32;24.40;1.00
10213;DHT22;5150;51.400;6.692;2022-08-07T02:23:57;24.40;1.00
10213;DHT22;5150;51.400;6.692;2022-08-07T02:27:24;24.30;1.00
10213;DHT22;5150;51.400;6.692;2022-08-07T02:30:56;24.30;1.00
10213;DHT22;5150;51.400;6.692;2022-08-07T02:34:22;24.30;1.00
10213;DHT22;5150;51.400;6.692;2022-08-07T02:37:48;24.20;1.00
10213;DHT22;5150;51.400;6.692;2022-08-07T02:41:14;24.30;1.00
10213;DHT22;5150;51.400;6.692;2022-08-07T02:44:47;24.20;1.00
10213;DHT22;5150;51.400;6.692;2022-08-07T02:48:15;24.20;1.00
10213;DHT22;5150;51.400;6.692;2022-08-07T02:51:43;24.20;1.00
10213;DHT22;5150;51.400;6.692;2022-08-07T02:55:17;24.20;1.00
10213;DHT22;5150;51.400;6.692;2022-08-07T02:58:51;24.10;1.00
10213;DHT22;5150;51.400;6.692;2022-08-07T03:02:17;24.10;1.00
10213;DHT22;5150;51.400;6.692;2022-08-07T03:05:43;24.10;1.00
10213;DHT22;5150;51.400;6.692;2022-08-07T03:09:10;24.00;1.00
10213;DHT22;5150;51.400;6.692;2022-08-07T03:12:35;24.00;1.00
10213;DHT22;5150;51.400;6.692;2022-08-07T03:16:04;24.00;1.00
10213;DHT22;5150;51.400;6.692;2022-08-07T03:19:28;24.00;1.00
10213;DHT22;5150;51.400;6.692;2022-08-07T03:23:00;23.90;1.00
10213;DHT22;5150;51.400;6.692;2022-08-07T03:26:30;23.90;1.00
10213;DHT22;5150;51.400;6.692;2022-08-07T03:29:59;23.90;1.00
10213;DHT22;5150;51.400;6.692;2022-08-07T03:33:26;23.90;1.00
10213;DHT22;5150;51.400;6.692;2022-08-07T03:37:01;23.80;1.00
10213;DHT22;5150;51.400;6.692;2022-08-07T03:40:36;23.80;1.00
10213;DHT22;5150;51.400;6.692;2022-08-07T03:44:08;23.80;1.00
10213;DHT22;5150;51.400;6.692;2022-08-07T03:47:36;23.80;1.00
10213;DHT22;5150;51.400;6.692;2022-08-07T03:51:13;23.80;1.00
10213;DHT22;5150;51.400;6.692;2022-08-07T03:54:41;23.80;1.00
10213;DHT22;5150;51.400;6.692;2022-08-07T03:58:19;23.70;1.00
10213;DHT22;5150;51.400;6.692;2022-08-07T04:02:05;23.70;1.00
10213;DHT22;5150;51.400;6.692;2022-08-07T04:05:30;23.70;1.00
10213;DHT22;5150;51.400;6.692;2022-08-07T04:09:07;23.60;1.00
10213;DHT22;5150;51.400;6.692;2022-08-07T04:12:38;23.60;1.00
10213;DHT22;5150;51.400;6.692;2022-08-07T04:16:02;23.60;1.00
10213;DHT22;5150;51.400;6.692;2022-08-07T04:19:34;23.60;1.00
10213;DHT22;5150;51.400;6.692;2022-08-07T04:23:16;23.60;1.00
10213;DHT22;5150;51.400;6.692;2022-08-07T04:26:42;23.50;1.00
10213;DHT22;5150;51.400;6.692;2022-08-07T04:30:06;23.50;1.00
10213;DHT22;5150;51.400;6.692;2022-08-07T04:33:55;23.50;1.00
10213;DHT22;5150;51.400;6.692;2022-08-07T04:37:21;23.50;1.00
10213;DHT22;5150;51.400;6.692;2022-08-07T04:40:46;23.50;1.00
10213;DHT22;5150;51.400;6.692;2022-08-07T04:44:32;23.50;1.00
10213;DHT22;5150;51.400;6.692;2022-08-07T04:48:23;23.40;1.00
10213;DHT22;5150;51.400;6.692;2022-08-07T04:51:55;23.40;1.00
10213;DHT22;5150;51.400;6.692;2022-08-07T04:55:29;23.40;1.00
10213;DHT22;5150;51.400;6.692;2022-08-07T04:59:17;23.40;1.00
10213;DHT22;5150;51.400;6.692;2022-08-07T05:03:07;23.40;1.00
10213;DHT22;5150;51.400;6.692;2022-08-07T05:06:57;23.40;1.00
10213;DHT22;5150;51.400;6.692;2022-08-07T05:10:47;23.40;1.00
10213;DHT22;5150;51.400;6.692;2022-08-07T05:14:27;23.40;1.00
10213;DHT22;5150;51.400;6.692;2022-08-07T05:18:19;23.30;1.00
10213;DHT22;5150;51.400;6.692;2022-08-07T05:21:46;23.30;1.00
10213;DHT22;5150;51.400;6.692;2022-08-07T05:25:24;23.30;1.00
10213;DHT22;5150;51.400;6.692;2022-08-07T05:29:10;23.30;1.00
10213;DHT22;5150;51.400;6.692;2022-08-07T05:32:37;23.30;1.00
10213;DHT22;5150;51.400;6.692;2022-08-07T05:36:02;23.30;1.00
10213;DHT22;5150;51.400;6.692;2022-08-07T05:39:26;23.30;1.00
10213;DHT22;5150;51.400;6.692;2022-08-07T05:43:10;23.30;1.00
10213;DHT22;5150;51.400;6.692;2022-08-07T05:46:38;23.30;1.00
10213;DHT22;5150;51.400;6.692;2022-08-07T05:50:05;23.30;1.00
10213;DHT22;5150;51.400;6.692;2022-08-07T05:53:30;23.30;1.00
10213;DHT22;5150;51.400;6.692;2022-08-07T05:57:14;23.30;1.00
10213;DHT22;5150;51.400;6.692;2022-08-07T06:00:43;23.30;1.00
10213;DHT22;5150;51.400;6.692;2022-08-07T06:04:16;23.30;1.00
10213;DHT22;5150;51.400;6.692;2022-08-07T06:07:48;23.30;1.00
10213;DHT22;5150;51.400;6.692;2022-08-07T06:11:33;23.30;1.00
10213;DHT22;5150;51.400;6.692;2022-08-07T06:14:57;23.30;1.00
10213;DHT22;5150;51.400;6.692;2022-08-07T06:18:28;23.30;1.00
10213;DHT22;5150;51.400;6.692;2022-08-07T06:21:54;23.30;1.00
10213;DHT22;5150;51.400;6.692;2022-08-07T06:25:40;23.30;1.00
10213;DHT22;5150;51.400;6.692;2022-08-07T06:29:18;23.30;1.00
10213;DHT22;5150;51.400;6.692;2022-08-07T06:32:45;23.30;1.00
10213;DHT22;5150;51.400;6.692;2022-08-07T06:36:10;23.30;1.00
10213;DHT22;5150;51.400;6.692;2022-08-07T06:39:52;23.30;1.00
10213;DHT22;5150;51.400;6.692;2022-08-07T06:43:36;23.30;1.00
10213;DHT22;5150;51.400;6.692;2022-08-07T06:47:12;23.30;1.00
10213;DHT22;5150;51.400;6.692;2022-08-07T06:50:38;23.30;1.00
10213;DHT22;5150;51.400;6.692;2022-08-07T06:54:10;23.30;1.00
10213;DHT22;5150;51.400;6.692;2022-08-07T06:57:59;23.30;1.00
10213;DHT22;5150;51.400;6.692;2022-08-07T07:01:26;23.30;1.00
10213;DHT22;5150;51.400;6.692;2022-08-07T07:05:03;23.30;1.00
10213;DHT22;5150;51.400;6.692;2022-08-07T07:08:27;23.30;1.00
10213;DHT22;5150;51.400;6.692;2022-08-07T07:12:09;23.30;1.00
10213;DHT22;5150;51.400;6.692;2022-08-07T07:15:49;23.30;1.00
10213;DHT22;5150;51.400;6.692;2022-08-07T07:19:22;23.30;1.00
10213;DHT22;5150;51.400;6.692;2022-08-07T07:23:07;23.30;1.00
10213;DHT22;5150;51.400;6.692;2022-08-07T07:26:53;23.30;1.00
10213;DHT22;5150;51.400;6.692;2022-08-07T07:30:18;23.30;1.00
10213;DHT22;5150;51.400;6.692;2022-08-07T07:34:04;23.30;1.00
10213;DHT22;5150;51.400;6.692;2022-08-07T07:37:29;23.30;1.00
10213;DHT22;5150;51.400;6.692;2022-08-07T07:41:14;23.30;1.00
10213;DHT22;5150;51.400;6.692;2022-08-07T07:44:42;23.40;1.00
10213;DHT22;5150;51.400;6.692;2022-08-07T07:48:13;23.40;1.00
10213;DHT22;5150;51.400;6.692;2022-08-07T07:51:58;23.40;1.00
10213;DHT22;5150;51.400;6.692;2022-08-07T07:55:24;23.40;1.00
10213;DHT22;5150;51.400;6.692;2022-08-07T07:59:06;23.50;1.00
10213;DHT22;5150;51.400;6.692;2022-08-07T08:02:34;23.50;1.00
10213;DHT22;5150;51.400;6.692;2022-08-07T08:05:57;23.50;1.00
10213;DHT22;5150;51.400;6.692;2022-08-07T08:09:24;23.60;1.00
10213;DHT22;5150;51.400;6.692;2022-08-07T08:12:50;23.60;1.00
10213;DHT22;5150;51.400;6.692;2022-08-07T08:16:25;23.60;1.00
10213;DHT22;5150;51.400;6.692;2022-08-07T08:19:54;23.70;1.00
10213;DHT22;5150;51.400;6.692;2022-08-07T08:23:38;23.70;1.00
10213;DHT22;5150;51.400;6.692;2022-08-07T08:27:27;23.70;1.00
10213;DHT22;5150;51.400;6.692;2022-08-07T08:30:57;23.80;1.00
10213;DHT22;5150;51.400;6.692;2022-08-07T08:34:22;23.80;1.00
10213;DHT22;5150;51.400;6.692;2022-08-07T08:37:50;23.90;1.00
10213;DHT22;5150;51.400;6.692;2022-08-07T08:41:36;23.90;1.00
10213;DHT22;5150;51.400;6.692;2022-08-07T08:45:27;23.90;1.00
10213;DHT22;5150;51.400;6.692;2022-08-07T08:49:19;23.90;1.00
10213;DHT22;5150;51.400;6.692;2022-08-07T08:53:05;24.00;1.00
10213;DHT22;5150;51.400;6.692;2022-08-07T08:56:35;24.00;1.00
10213;DHT22;5150;51.400;6.692;2022-08-07T09:00:09;24.00;1.00
10213;DHT22;5150;51.400;6.692;2022-08-07T09:03:51;24.10;1.00
10213;DHT22;5150;51.400;6.692;2022-08-07T09:07:24;24.10;1.00
10213;DHT22;5150;51.400;6.692;2022-08-07T09:11:04;24.10;1.00
10213;DHT22;5150;51.400;6.692;2022-08-07T09:14:39;24.20;1.00
10213;DHT22;5150;51.400;6.692;2022-08-07T09:18:55;24.20;1.00
10213;DHT22;5150;51.400;6.692;2022-08-07T09:22:39;24.20;1.00
10213;DHT22;5150;51.400;6.692;2022-08-07T09:26:30;24.30;1.00
10213;DHT22;5150;51.400;6.692;2022-08-07T09:29:59;24.30;1.00
10213;DHT22;5150;51.400;6.692;2022-08-07T09:33:46;24.30;1.00
10213;DHT22;5150;51.400;6.692;2022-08-07T09:37:27;24.30;1.00
10213;DHT22;5150;51.400;6.692;2022-08-07T09:41:24;24.30;1.00
10213;DHT22;5150;51.400;6.692;2022-08-07T09:45:11;24.40;1.00
10213;DHT22;5150;51.400;6.692;2022-08-07T09:49:05;24.40;1.00
10213;DHT22;5150;51.400;6.692;2022-08-07T09:52:59;24.40;1.00
10213;DHT22;5150;51.400;6.692;2022-08-07T09:56:41;24.50;1.00
10213;DHT22;5150;51.400;6.692;2022-08-07T10:00:13;24.50;1.00
10213;DHT22;5150;51.400;6.692;2022-08-07T10:03:53;24.50;1.00
10213;DHT22;5150;51.400;6.692;2022-08-07T10:07:47;24.50;1.00
10213;DHT22;5150;51.400;6.692;2022-08-07T10:11:39;24.50;1.00
10213;DHT22;5150;51.400;6.692;2022-08-07T10:15:42;24.60;1.00
10213;DHT22;5150;51.400;6.692;2022-08-07T10:19:21;24.60;1.00
10213;DHT22;5150;51.400;6.692;2022-08-07T10:23:17;24.60;1.00
10213;DHT22;5150;51.400;6.692;2022-08-07T10:27:19;24.70;1.00
10213;DHT22;5150;51.400;6.692;2022-08-07T10:31:06;24.70;1.00
10213;DHT22;5150;51.400;6.692;2022-08-07T10:34:45;24.70;1.00
10213;DHT22;5150;51.400;6.692;2022-08-07T10:38:27;24.80;1.00
10213;DHT22;5150;51.400;6.692;2022-08-07T10:42:31;24.80;1.00
10213;DHT22;5150;51.400;6.692;2022-08-07T10:46:00;24.80;1.00
10213;DHT22;5150;51.400;6.692;2022-08-07T10:49:33;24.90;1.00
10213;DHT22;5150;51.400;6.692;2022-08-07T10:53:20;24.90;1.00
10213;DHT22;5150;51.400;6.692;2022-08-07T10:56:52;25.00;1.00
10213;DHT22;5150;51.400;6.692;2022-08-07T11:00:24;25.00;1.00
10213;DHT22;5150;51.400;6.692;2022-08-07T11:04:10;25.00;1.00
10213;DHT22;5150;51.400;6.692;2022-08-07T11:08:01;25.10;1.00
10213;DHT22;5150;51.400;6.692;2022-08-07T11:11:34;25.10;1.00
10213;DHT22;5150;51.400;6.692;2022-08-07T11:15:03;25.10;1.00
10213;DHT22;5150;51.400;6.692;2022-08-07T11:18:41;25.20;1.00
10213;DHT22;5150;51.400;6.692;2022-08-07T11:22:16;25.20;1.00
10213;DHT22;5150;51.400;6.692;2022-08-07T11:26:07;25.20;1.00
10213;DHT22;5150;51.400;6.692;2022-08-07T11:29:38;25.30;1.00
10213;DHT22;5150;51.400;6.692;2022-08-07T11:33:17;25.30;1.00
10213;DHT22;5150;51.400;6.692;2022-08-07T11:37:09;25.40;1.00
10213;DHT22;5150;51.400;6.692;2022-08-07T11:40:45;25.40;1.00
10213;DHT22;5150;51.400;6.692;2022-08-07T11:44:17;25.40;1.00
10213;DHT22;5150;51.400;6.692;2022-08-07T11:47:56;25.40;1.00
10213;DHT22;5150;51.400;6.692;2022-08-07T11:51:47;25.40;1.00
10213;DHT22;5150;51.400;6.692;2022-08-07T11:55:25;25.40;1.00
10213;DHT22;5150;51.400;6.692;2022-08-07T11:59:20;25.40;1.00
10213;DHT22;5150;51.400;6.692;2022-08-07T12:03:40;25.40;1.00
10213;DHT22;5150;51.400;6.692;2022-08-07T12:07:13;25.40;1.00
10213;DHT22;5150;51.400;6.692;2022-08-07T12:10:53;25.40;1.00
10213;DHT22;5150;51.400;6.692;2022-08-07T12:14:43;25.40;1.00
10213;DHT22;5150;51.400;6.692;2022-08-07T12:18:24;25.40;1.00
10213;DHT22;5150;51.400;6.692;2022-08-07T12:21:58;25.40;1.00
10213;DHT22;5150;51.400;6.692;2022-08-07T12:25:47;25.50;1.00
10213;DHT22;5150;51.400;6.692;2022-08-07T12:29:40;25.50;1.00
10213;DHT22;5150;51.400;6.692;2022-08-07T12:33:10;25.50;1.00
10213;DHT22;5150;51.400;6.692;2022-08-07T12:36:50;25.50;1.00
10213;DHT22;5150;51.400;6.692;2022-08-07T12:40:19;25.60;1.00
10213;DHT22;5150;51.400;6.692;2022-08-07T12:44:05;25.60;1.00
10213;DHT22;5150;51.400;6.692;2022-08-07T12:47:46;25.60;1.00
10213;DHT22;5150;51.400;6.692;2022-08-07T12:51:14;25.60;1.00
10213;DHT22;5150;51.400;6.692;2022-08-07T12:54:46;25.60;1.00
10213;DHT22;5150;51.400;6.692;2022-08-07T12:58:19;25.70;1.00
10213;DHT22;5150;51.400;6.692;2022-08-07T13:02:05;25.70;1.00
10213;DHT22;5150;51.400;6.692;2022-08-07T13:05:40;25.70;1.00
10213;DHT22;5150;51.400;6.692;2022-08-07T13:09:41;25.70;1.00
10213;DHT22;5150;51.400;6.692;2022-08-07T13:13:44;25.70;1.00
10213;DHT22;5150;51.400;6.692;2022-08-07T13:17:22;25.80;1.00
10213;DHT22;5150;51.400;6.692;2022-08-07T13:21:06;25.80;1.00
10213;DHT22;5150;51.400;6.692;2022-08-07T13:24:37;25.80;1.00
10213;DHT22;5150;51.400;6.692;2022-08-07T13:28:17;25.80;1.00
10213;DHT22;5150;51.400;6.692;2022-08-07T13:31:52;25.80;1.00
10213;DHT22;5150;51.400;6.692;2022-08-07T13:35:41;25.80;1.00
10213;DHT22;5150;51.400;6.692;2022-08-07T13:39:28;25.90;1.00
10213;DHT22;5150;51.400;6.692;2022-08-07T13:43:14;25.90;1.00
10213;DHT22;5150;51.400;6.692;2022-08-07T13:46:45;25.90;1.00
10213;DHT22;5150;51.400;6.692;2022-08-07T13:50:12;25.90;1.00
10213;DHT22;5150;51.400;6.692;2022-08-07T13:53:57;26.00;1.00
10213;DHT22;5150;51.400;6.692;2022-08-07T13:57:26;26.00;1.00
10213;DHT22;5150;51.400;6.692;2022-08-07T14:00:59;26.00;1.00
10213;DHT22;5150;51.400;6.692;2022-08-07T14:04:30;26.00;1.00
10213;DHT22;5150;51.400;6.692;2022-08-07T14:07:59;26.00;1.00
10213;DHT22;5150;51.400;6.692;2022-08-07T14:11:27;26.10;1.00
10213;DHT22;5150;51.400;6.692;2022-08-07T14:15:18;26.10;1.00
10213;DHT22;5150;51.400;6.692;2022-08-07T14:18:47;26.10;1.00
10213;DHT22;5150;51.400;6.692;2022-08-07T14:22:22;26.10;1.00
10213;DHT22;5150;51.400;6.692;2022-08-07T14:26:01;26.10;1.00
10213;DHT22;5150;51.400;6.692;2022-08-07T14:29:32;26.20;1.00
10213;DHT22;5150;51.400;6.692;2022-08-07T14:33:17;26.20;1.00
10213;DHT22;5150;51.400;6.692;2022-08-07T14:37:02;26.20;1.00
10213;DHT22;5150;51.400;6.692;2022-08-07T14:40:38;26.20;1.00
10213;DHT22;5150;51.400;6.692;2022-08-07T14:44:12;26.30;1.00
10213;DHT22;5150;51.400;6.692;2022-08-07T14:47:37;26.30;1.00
10213;DHT22;5150;51.400;6.692;2022-08-07T14:51:06;26.30;1.00
10213;DHT22;5150;51.400;6.692;2022-08-07T14:54:50;26.40;1.00
10213;DHT22;5150;51.400;6.692;2022-08-07T14:58:36;26.40;1.00
10213;DHT22;5150;51.400;6.692;2022-08-07T15:02:11;26.40;1.00
10213;DHT22;5150;51.400;6.692;2022-08-07T15:05:55;26.40;1.00
10213;DHT22;5150;51.400;6.692;2022-08-07T15:09:26;26.50;1.00
10213;DHT22;5150;51.400;6.692;2022-08-07T15:13:15;26.50;1.00
10213;DHT22;5150;51.400;6.692;2022-08-07T15:16:43;26.50;1.00
10213;DHT22;5150;51.400;6.692;2022-08-07T15:20:22;26.60;1.00
10213;DHT22;5150;51.400;6.692;2022-08-07T15:23:58;26.60;1.00
10213;DHT22;5150;51.400;6.692;2022-08-07T15:27:44;26.60;1.00
10213;DHT22;5150;51.400;6.692;2022-08-07T15:31:29;26.60;1.00
10213;DHT22;5150;51.400;6.692;2022-08-07T15:35:17;26.70;1.00
10213;DHT22;5150;51.400;6.692;2022-08-07T15:39:02;26.70;1.00
10213;DHT22;5150;51.400;6.692;2022-08-07T15:42:37;26.70;1.00
10213;DHT22;5150;51.400;6.692;2022-08-07T15:46:17;26.70;1.00
10213;DHT22;5150;51.400;6.692;2022-08-07T15:49:59;26.70;1.00
10213;DHT22;5150;51.400;6.692;2022-08-07T15:53:34;26.80;1.00
10213;DHT22;5150;51.400;6.692;2022-08-07T15:57:19;26.80;1.00
10213;DHT22;5150;51.400;6.692;2022-08-07T16:01:02;26.80;1.00
10213;DHT22;5150;51.400;6.692;2022-08-07T16:04:29;26.90;1.00
10213;DHT22;5150;51.400;6.692;2022-08-07T16:07:55;26.90;1.00
10213;DHT22;5150;51.400;6.692;2022-08-07T16:11:56;26.90;1.00
10213;DHT22;5150;51.400;6.692;2022-08-07T16:15:33;27.00;1.00
10213;DHT22;5150;51.400;6.692;2022-08-07T16:19:36;27.00;1.00
10213;DHT22;5150;51.400;6.692;2022-08-07T16:23:32;27.00;1.00
10213;DHT22;5150;51.400;6.692;2022-08-07T16:27:23;27.00;1.00
10213;DHT22;5150;51.400;6.692;2022-08-07T16:31:10;27.00;1.00
10213;DHT22;5150;51.400;6.692;2022-08-07T16:35:08;27.10;1.00
10213;DHT22;5150;51.400;6.692;2022-08-07T16:39:02;27.10;1.00
10213;DHT22;5150;51.400;6.692;2022-08-07T16:42:52;27.20;1.00
10213;DHT22;5150;51.400;6.692;2022-08-07T16:46:28;27.20;1.00
10213;DHT22;5150;51.400;6.692;2022-08-07T16:50:31;27.20;1.00
10213;DHT22;5150;51.400;6.692;2022-08-07T16:54:32;27.20;1.00
10213;DHT22;5150;51.400;6.692;2022-08-07T16:58:01;27.20;1.00
10213;DHT22;5150;51.400;6.692;2022-08-07T17:01:34;27.20;1.00
10213;DHT22;5150;51.400;6.692;2022-08-07T17:05:09;27.20;1.00
10213;DHT22;5150;51.400;6.692;2022-08-07T17:08:57;27.20;1.00
10213;DHT22;5150;51.400;6.692;2022-08-07T17:12:46;27.20;1.00
10213;DHT22;5150;51.400;6.692;2022-08-07T17:16:19;27.20;1.00
10213;DHT22;5150;51.400;6.692;2022-08-07T17:19:46;27.20;1.00
10213;DHT22;5150;51.400;6.692;2022-08-07T17:23:41;27.30;1.00
10213;DHT22;5150;51.400;6.692;2022-08-07T17:27:10;27.30;1.00
10213;DHT22;5150;51.400;6.692;2022-08-07T17:30:45;27.30;1.00
10213;DHT22;5150;51.400;6.692;2022-08-07T17:34:26;27.30;1.00
10213;DHT22;5150;51.400;6.692;2022-08-07T17:38:03;27.30;1.00
10213;DHT22;5150;51.400;6.692;2022-08-07T17:41:46;27.30;1.00
10213;DHT22;5150;51.400;6.692;2022-08-07T17:45:29;27.30;1.00
10213;DHT22;5150;51.400;6.692;2022-08-07T17:49:00;27.20;1.00
10213;DHT22;5150;51.400;6.692;2022-08-07T17:52:35;27.20;1.00
10213;DHT22;5150;51.400;6.692;2022-08-07T17:56:05;27.20;1.00
10213;DHT22;5150;51.400;6.692;2022-08-07T17:59:42;27.20;1.00
10213;DHT22;5150;51.400;6.692;2022-08-07T18:03:21;27.20;1.00
10213;DHT22;5150;51.400;6.692;2022-08-07T18:06:51;27.10;1.00
10213;DHT22;5150;51.400;6.692;2022-08-07T18:10:42;27.10;1.00
10213;DHT22;5150;51.400;6.692;2022-08-07T18:14:32;27.10;1.00
10213;DHT22;5150;51.400;6.692;2022-08-07T18:18:02;27.10;1.00
10213;DHT22;5150;51.400;6.692;2022-08-07T18:21:54;27.10;1.00
10213;DHT22;5150;51.400;6.692;2022-08-07T18:25:30;27.10;1.00
10213;DHT22;5150;51.400;6.692;2022-08-07T18:29:07;27.10;1.00
10213;DHT22;5150;51.400;6.692;2022-08-07T18:33:24;27.10;1.00
10213;DHT22;5150;51.400;6.692;2022-08-07T18:37:01;27.10;1.00
10213;DHT22;5150;51.400;6.692;2022-08-07T18:40:39;27.00;1.00
10213;DHT22;5150;51.400;6.692;2022-08-07T18:44:34;27.00;1.00
10213;DHT22;5150;51.400;6.692;2022-08-07T18:48:25;27.00;1.00
10213;DHT22;5150;51.400;6.692;2022-08-07T18:52:30;27.00;1.00
10213;DHT22;5150;51.400;6.692;2022-08-07T18:56:29;27.00;1.00
10213;DHT22;5150;51.400;6.692;2022-08-07T19:00:03;27.00;1.00
10213;DHT22;5150;51.400;6.692;2022-08-07T19:03:55;27.00;1.00
10213;DHT22;5150;51.400;6.692;2022-08-07T19:07:30;27.00;1.00
10213;DHT22;5150;51.400;6.692;2022-08-07T19:10:59;27.00;1.00
10213;DHT22;5150;51.400;6.692;2022-08-07T19:15:09;27.00;1.00
10213;DHT22;5150;51.400;6.692;2022-08-07T19:19:01;27.00;1.00
10213;DHT22;5150;51.400;6.692;2022-08-07T19:22:34;27.00;1.00
10213;DHT22;5150;51.400;6.692;2022-08-07T19:25:58;27.00;1.00
10213;DHT22;5150;51.400;6.692;2022-08-07T19:29:45;27.00;1.00
10213;DHT22;5150;51.400;6.692;2022-08-07T19:33:31;27.00;1.00
10213;DHT22;5150;51.400;6.692;2022-08-07T19:37:03;26.90;1.00
10213;DHT22;5150;51.400;6.692;2022-08-07T19:40:40;27.00;1.00
10213;DHT22;5150;51.400;6.692;2022-08-07T19:44:14;26.90;1.00
10213;DHT22;5150;51.400;6.692;2022-08-07T19:47:48;26.90;1.00
10213;DHT22;5150;51.400;6.692;2022-08-07T19:51:20;26.90;1.00
10213;DHT22;5150;51.400;6.692;2022-08-07T19:55:04;26.90;1.00
10213;DHT22;5150;51.400;6.692;2022-08-07T19:58:32;26.80;1.00
10213;DHT22;5150;51.400;6.692;2022-08-07T20:01:57;26.80;1.00
10213;DHT22;5150;51.400;6.692;2022-08-07T20:05:24;26.70;1.00
10213;DHT22;5150;51.400;6.692;2022-08-07T20:08:50;26.70;1.00
10213;DHT22;5150;51.400;6.692;2022-08-07T20:12:14;26.70;1.00
10213;DHT22;5150;51.400;6.692;2022-08-07T20:15:56;26.70;1.00
10213;DHT22;5150;51.400;6.692;2022-08-07T20:19:21;26.70;1.00
10213;DHT22;5150;51.400;6.692;2022-08-07T20:23:09;26.60;1.00
10213;DHT22;5150;51.400;6.692;2022-08-07T20:26:57;26.60;1.00
10213;DHT22;5150;51.400;6.692;2022-08-07T20:30:28;26.60;1.00
10213;DHT22;5150;51.400;6.692;2022-08-07T20:33:54;26.50;1.00
10213;DHT22;5150;51.400;6.692;2022-08-07T20:37:24;26.50;1.00
10213;DHT22;5150;51.400;6.692;2022-08-07T20:40:52;26.50;1.00
10213;DHT22;5150;51.400;6.692;2022-08-07T20:44:26;26.50;1.00
10213;DHT22;5150;51.400;6.692;2022-08-07T20:47:55;26.40;1.00
10213;DHT22;5150;51.400;6.692;2022-08-07T20:51:22;26.40;1.00
10213;DHT22;5150;51.400;6.692;2022-08-07T20:54:50;26.40;1.00
10213;DHT22;5150;51.400;6.692;2022-08-07T20:58:16;26.40;1.00
10213;DHT22;5150;51.400;6.692;2022-08-07T21:01:52;26.40;1.00
10213;DHT22;5150;51.400;6.692;2022-08-07T21:05:20;26.40;1.00
10213;DHT22;5150;51.400;6.692;2022-08-07T21:09:06;26.40;1.00
10213;DHT22;5150;51.400;6.692;2022-08-07T21:12:36;26.30;1.00
10213;DHT22;5150;51.400;6.692;2022-08-07T21:16:03;26.30;1.00
10213;DHT22;5150;51.400;6.692;2022-08-07T21:19:31;26.30;1.00
10213;DHT22;5150;51.400;6.692;2022-08-07T21:23:21;26.30;1.00
10213;DHT22;5150;51.400;6.692;2022-08-07T21:26:54;26.30;1.00
10213;DHT22;5150;51.400;6.692;2022-08-07T21:30:24;26.20;1.00
10213;DHT22;5150;51.400;6.692;2022-08-07T21:34:00;26.20;1.00
10213;DHT22;5150;51.400;6.692;2022-08-07T21:37:32;26.20;1.00
10213;DHT22;5150;51.400;6.692;2022-08-07T21:41:21;26.20;1.00
10213;DHT22;5150;51.400;6.692;2022-08-07T21:44:52;26.10;1.00
10213;DHT22;5150;51.400;6.692;2022-08-07T21:48:22;26.10;1.00
10213;DHT22;5150;51.400;6.692;2022-08-07T21:52:02;26.10;1.00
10213;DHT22;5150;51.400;6.692;2022-08-07T21:55:44;26.10;1.00
10213;DHT22;5150;51.400;6.692;2022-08-07T21:59:24;26.00;1.00
10213;DHT22;5150;51.400;6.692;2022-08-07T22:03:16;26.00;1.00
10213;DHT22;5150;51.400;6.692;2022-08-07T22:06:59;26.00;1.00
10213;DHT22;5150;51.400;6.692;2022-08-07T22:10:27;26.00;1.00
10213;DHT22;5150;51.400;6.692;2022-08-07T22:13:59;25.90;1.00
10213;DHT22;5150;51.400;6.692;2022-08-07T22:17:35;25.90;1.00
10213;DHT22;5150;51.400;6.692;2022-08-07T22:21:04;25.90;1.00
10213;DHT22;5150;51.400;6.692;2022-08-07T22:24:39;25.90;1.00
10213;DHT22;5150;51.400;6.692;2022-08-07T22:28:08;25.90;1.00
10213;DHT22;5150;51.400;6.692;2022-08-07T22:31:56;25.80;1.00
10213;DHT22;5150;51.400;6.692;2022-08-07T22:35:35;25.90;1.00
10213;DHT22;5150;51.400;6.692;2022-08-07T22:39:06;25.80;1.00
10213;DHT22;5150;51.400;6.692;2022-08-07T22:42:33;25.80;1.00
10213;DHT22;5150;51.400;6.692;2022-08-07T22:50:37;25.80;1.00
10213;DHT22;5150;51.400;6.692;2022-08-07T22:54:08;25.80;1.00
10213;DHT22;5150;51.400;6.692;2022-08-07T22:58:00;25.80;1.00
10213;DHT22;5150;51.400;6.692;2022-08-07T23:01:39;25.80;1.00
10213;DHT22;5150;51.400;6.692;2022-08-07T23:09:33;25.70;1.00
10213;DHT22;5150;51.400;6.692;2022-08-07T23:13:37;25.70;1.00
10213;DHT22;5150;51.400;6.692;2022-08-07T23:21:23;25.70;1.00
10213;DHT22;5150;51.400;6.692;2022-08-07T23:25:04;25.70;1.00
10213;DHT22;5150;51.400;6.692;2022-08-07T23:28:47;25.70;1.00
10213;DHT22;5150;51.400;6.692;2022-08-07T23:32:20;25.70;1.00
10213;DHT22;5150;51.400;6.692;2022-08-07T23:36:12;25.60;1.00
10213;DHT22;5150;51.400;6.692;2022-08-07T23:40:02;25.60;1.00
10213;DHT22;5150;51.400;6.692;2022-08-07T23:43:46;25.60;1.00
10213;DHT22;5150;51.400;6.692;2022-08-07T23:47:21;25.60;1.00
10213;DHT22;5150;51.400;6.692;2022-08-07T23:50:54;25.60;1.00
10213;DHT22;5150;51.400;6.692;2022-08-07T23:54:29;25.60;1.00